Aérodrome :







RETROUVEZ-NOUS SUR...

 
LOGIN :

S'inscrire | Disclaimer

   EN    FR    IT 

 









Légende :    VFR   VFR Marginal   IFR   IFR Intensif   IFR Très Intensif
Visi : 
Plafond : 
>= 8 km
>= 3000ft
5 à 8 km
1000 à 3000 ft
1500m à 5 km
500 à 1000 ft
800 à 1500m
200 à 500 ft
< 800m
< 200 ft
Symboles :   Orages  Brouillard  Fortes neiges  Fortes précipitations  Vent > 20 kt






- Altitude de l'aérodrome : 83 ft


KBHB - Hancock County-Bar Harbor

DERNIER METAR :
  • 071856Z AUTO 20011G17KT 10SM BKN050 19/16 A3018 RMK AO2 SLP220 T01940156

METARs EXPIRÉS :
  • 071756Z AUTO 22012KT 10SM BKN055 20/16 A3018 RMK AO2 SLP222 T02000161 10200 20161 56006
  • 071656Z AUTO 21012KT 10SM CLR 20/16 A3019 RMK AO2 SLP223 T02000156

TAF KBHB
Valide du 07 à 18h jusqu'au 08 à 18h UTC


071722Z 0718/0818 19008KT P6SM FEW080
FM080300 18007KT P6SM BKN045
FM080600 18007KT P6SM BKN050
FM081000 18008KT 1SM BR BKN008
FM081200 18009KT 2SM BR VCSH OVC007
FIR KZBW / Amérique du Nord



MET'MAP, la Météo Aéronautique d'un coup d'oeil ! - Copyright ORBIFLY Décembre 2007 - Disclaimer

ORBIFLY MET'MAP TEAM :

Programmation & Développement : Alexandra Zaïnal
Sur une idée originale de : Baudouin d'Aumeries
Assistance à la programmation : Marc-Olivier Méhu
Soutien technique & logistique : Manuel Goepfert

Contact : metmap@orbifly.com




SOURCES & CREDITS :

   NOAA